Huvudsida
METAR-TAF:

METAR-TAF

Flygplatser :

Honningsvågs flygplats. Valan

Honningsvåg, Norge

latitud: 71-01N, longitud: 025-59E, höjd: 1 m

Aktuellt väderrapport

Denna rapport gjordes för 42 minuter sedan, klockan 13:50 UTC
Vind 7 kt från syd/sydväst, varierande mellan syd/sydost och väst
Temperatur 15°C
Fuktighet 77%
Tryck 1002 hPa
Sikt 10 km eller mer
Inga moln under 1 500 m eller inga cumulonimbus

METAR: ENHV 191350Z 20007KT 150V260 CAVOK 15/11 Q1002

Tid: 16:32 (14:32 UTC)


TAF: saknas

Aktuella väderrapporter och prognoser från 4000 flygplatser (METAR- och TAF-rapporter).

De tillgängliga stationerna syns som gula och röda prickar på kartan.

För musen över prickarna för att se namnen på stationerna.

Klicka sedan för att få väderrapporter och prognoser.

För att ändra kartan: Klicka på de gröna knapparna med ett svart kors på för att zooma in; den gröna knappen med ett streck på för att zooma ut; eller på de gröna pilarna för angränsande kartor.


METAR-TAF: